Time;durP1;ratioP1;P1;durP2;ratioP2;P2;SDS_P1;SDS_P2;PMS_P1;PMS_P2;Temp;Humidity;BMP_temperature;BMP_pressure;BME280_temperature;BME280_humidity;BME280_pressure;Samples;Min_cycle;Max_cycle;Signal;HPM_P1;HPM_P2
2024/01/25 00:01:05;;;;;;;9.50;4.60;;;;;;;7.92;98.83;100097.86;185437;1233;46085;-62
2024/01/25 00:05:17;;;;;;;11.00;4.10;;;;;;;7.92;97.75;100106.27;185377;1234;44595;-63
2024/01/25 00:09:19;;;;;;;10.10;3.90;;;;;;;8.00;96.57;100106.94;185228;1234;45008;-63
2024/01/25 00:13:21;;;;;;;10.10;3.00;;;;;;;7.98;95.50;100101.98;185363;1233;46020;-63
2024/01/25 00:17:24;;;;;;;10.00;2.70;;;;;;;7.94;94.66;100098.39;185338;1237;58633;-63
2024/01/25 00:21:26;;;;;;;5.90;2.10;;;;;;;7.98;92.90;100090.18;185409;1234;45909;-63
2024/01/25 00:25:29;;;;;;;16.00;4.40;;;;;;;8.04;91.03;100079.48;185459;1234;43727;-63
2024/01/25 00:29:35;;;;;;;12.60;4.50;;;;;;;8.05;89.78;100082.70;185395;1234;45864;-62
2024/01/25 00:33:37;;;;;;;6.90;2.70;;;;;;;8.17;88.92;100088.91;185239;1234;44914;-63
2024/01/25 00:37:40;;;;;;;6.80;3.10;;;;;;;8.14;88.40;100090.70;185410;1233;57177;-63
2024/01/25 00:41:46;;;;;;;15.10;3.10;;;;;;;8.15;89.20;100085.32;185353;1233;43733;-63
2024/01/25 00:45:49;;;;;;;8.20;3.00;;;;;;;8.19;88.53;100068.27;185023;1234;44597;-62
2024/01/25 00:49:52;;;;;;;10.70;3.00;;;;;;;8.16;88.71;100095.91;185292;1233;45906;-62
2024/01/25 00:53:54;;;;;;;6.40;2.90;;;;;;;8.11;88.92;100086.70;185313;1237;45848;-62
2024/01/25 00:57:59;;;;;;;8.70;4.60;;;;;;;8.07;89.09;100086.48;185501;1234;58146;-64
2024/01/25 01:02:05;;;;;;;9.20;3.30;;;;;;;8.03;88.95;100095.59;185777;1233;44855;-62
2024/01/25 01:06:15;;;;;;;6.20;2.60;;;;;;;7.96;88.85;100089.44;185252;1233;44974;-62
2024/01/25 01:10:19;;;;;;;9.90;4.10;;;;;;;8.00;88.25;100090.70;185365;1234;44844;-63
2024/01/25 01:14:24;;;;;;;10.20;3.90;;;;;;;8.02;87.54;100082.92;185308;1234;44851;-63
2024/01/25 01:18:25;;;;;;;8.30;4.10;;;;;;;8.02;87.10;100097.77;185379;1234;58750;-62
2024/01/25 01:22:27;;;;;;;9.70;3.30;;;;;;;7.99;87.22;100106.09;185332;1233;44893;-62
2024/01/25 01:26:31;;;;;;;8.10;4.10;;;;;;;7.95;87.06;100096.38;185341;1235;44735;-62
2024/01/25 01:30:43;;;;;;;7.50;3.40;;;;;;;8.02;86.86;100096.19;185327;1237;43524;-63
2024/01/25 01:34:45;;;;;;;9.60;3.40;;;;;;;7.90;87.53;100097.30;185193;1234;43680;-63
2024/01/25 01:38:48;;;;;;;9.50;3.10;;;;;;;7.86;87.86;100088.71;185152;1234;58602;-63
2024/01/25 01:42:51;;;;;;;8.30;2.20;;;;;;;7.80;88.30;100095.83;185282;1234;46542;-63
2024/01/25 01:47:00;;;;;;;10.40;3.40;;;;;;;7.68;88.75;100091.07;185375;1234;45860;-63
2024/01/25 01:51:03;;;;;;;8.80;4.00;;;;;;;7.69;87.90;100095.76;185363;1234;43533;-63
2024/01/25 01:55:06;;;;;;;11.10;3.40;;;;;;;7.76;87.68;100095.26;185403;1234;43777;-63
2024/01/25 01:59:11;;;;;;;15.20;4.20;;;;;;;7.76;88.21;100092.48;185364;1233;58284;-62
2024/01/25 02:03:13;;;;;;;13.30;3.30;;;;;;;7.74;88.48;100098.40;185246;1234;43568;-62
2024/01/25 02:07:15;;;;;;;11.70;3.40;;;;;;;7.80;88.30;100095.00;185373;1233;43732;-64
2024/01/25 02:11:21;;;;;;;10.30;3.60;;;;;;;7.88;88.05;100097.44;185209;1233;44971;-63
2024/01/25 02:15:23;;;;;;;6.80;2.40;;;;;;;7.86;88.00;100090.13;185270;1234;44875;-63
2024/01/25 02:19:26;;;;;;;16.30;3.70;;;;;;;7.89;87.69;100103.70;185212;1233;58656;-62
2024/01/25 02:23:28;;;;;;;27.70;3.80;;;;;;;7.94;87.62;100101.39;185228;1234;45977;-64
2024/01/25 02:27:30;;;;;;;8.70;3.80;;;;;;;7.95;87.65;100096.16;185245;1233;43729;-63
2024/01/25 02:31:32;;;;;;;8.30;3.50;;;;;;;7.97;86.87;100075.05;185146;1234;46011;-63
2024/01/25 02:35:34;;;;;;;12.70;3.00;;;;;;;7.97;86.73;100084.58;185282;1234;45954;-62
2024/01/25 02:39:36;;;;;;;5.70;2.60;;;;;;;7.90;87.42;100092.45;185389;1234;57437;-62
2024/01/25 02:43:38;;;;;;;9.10;3.50;;;;;;;7.95;86.85;100096.92;185334;1233;43962;-62
2024/01/25 02:47:42;;;;;;;26.20;5.80;;;;;;;7.95;87.33;100110.84;185329;1234;45812;-64
2024/01/25 02:51:45;;;;;;;10.40;2.90;;;;;;;7.92;87.50;100118.49;185197;1233;45497;-63
2024/01/25 02:55:48;;;;;;;10.00;3.10;;;;;;;7.93;87.11;100132.88;185320;1233;45932;-63
2024/01/25 02:59:52;;;;;;;9.50;2.20;;;;;;;7.94;87.09;100114.65;185303;1237;57433;-63
2024/01/25 03:03:54;;;;;;;9.90;4.40;;;;;;;7.96;87.44;100144.17;185228;1233;43501;-62
2024/01/25 03:07:56;;;;;;;11.40;2.60;;;;;;;7.97;87.06;100138.42;185148;1234;44822;-62
2024/01/25 03:12:00;;;;;;;13.20;3.60;;;;;;;8.02;87.10;100135.91;185342;1237;45871;-63
2024/01/25 03:16:03;;;;;;;14.40;5.10;;;;;;;8.04;87.35;100153.77;185339;1234;45990;-63
2024/01/25 03:20:08;;;;;;;10.40;3.00;;;;;;;8.06;87.87;100162.34;185350;1234;57090;-62
2024/01/25 03:24:10;;;;;;;20.50;3.30;;;;;;;7.99;88.05;100164.62;185172;1234;45247;-62
2024/01/25 03:28:14;;;;;;;7.50;2.90;;;;;;;8.05;87.98;100154.98;185348;1233;43595;-62
2024/01/25 03:32:16;;;;;;;10.90;3.30;;;;;;;8.02;88.41;100169.65;185099;1233;44624;-63
2024/01/25 03:36:21;;;;;;;12.60;2.80;;;;;;;8.00;88.77;100168.59;185306;1234;43904;-62
2024/01/25 03:40:23;;;;;;;10.30;3.50;;;;;;;7.98;88.89;100155.68;185345;1233;57527;-63
2024/01/25 03:44:26;;;;;;;11.70;3.80;;;;;;;8.04;88.29;100146.95;185222;1234;46079;-62
2024/01/25 03:48:54;;;;;;;10.60;3.30;;;;;;;8.03;89.09;100152.30;185263;1233;43901;-62
2024/01/25 03:52:58;;;;;;;11.60;2.90;;;;;;;7.97;88.69;100143.01;185282;1234;44791;-63
2024/01/25 03:57:00;;;;;;;8.70;3.40;;;;;;;8.07;87.52;100116.00;185278;1234;44963;-63
2024/01/25 04:01:02;;;;;;;12.90;4.50;;;;;;;8.08;87.78;100132.69;185252;1234;59205;-62
2024/01/25 04:05:06;;;;;;;12.00;4.00;;;;;;;8.09;88.30;100115.80;185167;1234;44744;-63
2024/01/25 04:09:09;;;;;;;10.90;4.50;;;;;;;8.15;88.18;100119.30;185249;1234;43568;-63
2024/01/25 04:13:11;;;;;;;6.30;3.40;;;;;;;8.13;87.54;100108.11;185310;1234;43502;-63
2024/01/25 04:17:13;;;;;;;5.30;2.70;;;;;;;8.22;87.50;100109.02;185358;1233;45352;-68
2024/01/25 04:21:14;;;;;;;13.60;3.50;;;;;;;8.12;88.31;100102.31;185385;1233;58441;-69
2024/01/25 04:25:23;;;;;;;5.90;2.70;;;;;;;8.05;90.27;100127.09;185437;1233;44988;-70
2024/01/25 04:29:25;;;;;;;14.50;4.60;;;;;;;7.92;92.21;100135.76;185593;1233;45854;-69
2024/01/25 04:33:30;;;;;;;19.70;4.70;;;;;;;7.86;92.49;100124.59;185438;1233;45899;-70
2024/01/25 04:37:33;;;;;;;14.00;4.40;;;;;;;7.84;94.38;100136.70;185641;1233;43978;-69
2024/01/25 04:41:37;;;;;;;3.90;2.60;;;;;;;7.73;94.11;100121.77;185433;1234;59381;-69
2024/01/25 04:45:40;;;;;;;14.70;4.30;;;;;;;7.81;93.06;100136.21;185432;1234;45424;-69
2024/01/25 04:49:45;;;;;;;8.30;3.40;;;;;;;7.77;92.86;100133.02;185422;1233;45270;-69
2024/01/25 04:53:48;;;;;;;12.00;3.40;;;;;;;7.83;92.31;100132.91;185441;1233;43508;-69
2024/01/25 04:57:53;;;;;;;13.40;3.70;;;;;;;7.84;93.30;100146.98;185486;1234;45908;-69
2024/01/25 05:01:57;;;;;;;7.50;4.30;;;;;;;7.75;94.52;100146.84;185432;1234;58444;-69
2024/01/25 05:06:08;;;;;;;10.00;4.30;;;;;;;7.74;96.45;100145.88;185438;1233;43602;-69
2024/01/25 05:10:10;;;;;;;13.40;4.00;;;;;;;7.73;98.92;100139.25;185475;1234;43909;-70
2024/01/25 05:14:12;;;;;;;8.60;3.70;;;;;;;7.48;100.00;100152.67;185344;1234;43598;-69
2024/01/25 05:18:14;;;;;;;8.60;3.10;;;;;;;7.42;100.00;100152.73;185488;1237;43706;-69
2024/01/25 05:22:17;;;;;;;7.20;3.00;;;;;;;7.21;100.00;100141.00;185480;1237;58779;-70
2024/01/25 05:26:20;;;;;;;14.80;5.80;;;;;;;7.25;100.00;100134.15;185465;1233;43833;-70
2024/01/25 05:30:25;;;;;;;14.30;3.70;;;;;;;7.13;100.00;100139.07;185478;1237;44607;-70
2024/01/25 05:34:27;;;;;;;17.70;4.70;;;;;;;7.03;100.00;100124.22;185473;1237;43501;-70
2024/01/25 05:38:33;;;;;;;7.20;3.20;;;;;;;7.06;100.00;100127.37;185375;1234;44757;-68
2024/01/25 05:42:35;;;;;;;14.80;4.00;;;;;;;7.06;100.00;100115.40;185520;1234;58400;-67
2024/01/25 05:46:50;;;;;;;12.90;4.40;;;;;;;7.07;100.00;100128.36;185392;1234;43755;-64
2024/01/25 05:50:53;;;;;;;13.80;3.80;;;;;;;6.87;100.00;100140.33;185235;1233;44988;-64
2024/01/25 05:54:55;;;;;;;12.70;3.30;;;;;;;6.98;100.00;100144.14;185307;1235;45884;-64
2024/01/25 05:58:58;;;;;;;29.90;7.00;;;;;;;6.95;100.00;100164.77;185316;1234;45989;-65
2024/01/25 06:02:59;;;;;;;12.40;4.60;;;;;;;7.00;100.00;100177.50;185346;1233;58364;-64
2024/01/25 06:07:02;;;;;;;20.10;4.90;;;;;;;7.06;100.00;100190.67;185244;1233;44592;-64
2024/01/25 06:11:05;;;;;;;14.80;3.50;;;;;;;7.13;99.98;100199.74;185287;1237;43991;-64
2024/01/25 06:15:07;;;;;;;33.40;4.40;;;;;;;7.23;99.79;100201.34;185262;1233;45967;-64
2024/01/25 06:19:10;;;;;;;7.80;4.10;;;;;;;7.26;99.14;100211.73;185270;1234;44909;-64
2024/01/25 06:23:13;;;;;;;17.10;4.50;;;;;;;7.30;97.45;100208.65;185187;1234;57277;-64
2024/01/25 06:27:15;;;;;;;15.40;4.50;;;;;;;7.39;96.70;100230.09;185175;1233;43667;-65
2024/01/25 06:31:18;;;;;;;11.20;4.30;;;;;;;7.37;96.41;100228.47;185343;1234;44863;-64
2024/01/25 06:35:25;;;;;;;25.30;6.10;;;;;;;7.34;96.77;100212.77;185174;1233;44579;-64
2024/01/25 06:39:30;;;;;;;11.60;3.80;;;;;;;7.34;96.17;100213.06;185390;1234;46027;-64
2024/01/25 06:43:33;;;;;;;19.90;4.10;;;;;;;7.33;96.43;100219.52;185395;1233;59109;-63
2024/01/25 06:47:35;;;;;;;11.60;4.40;;;;;;;7.38;94.80;100229.61;185223;1234;43448;-63
2024/01/25 06:51:39;;;;;;;15.40;4.00;;;;;;;7.45;94.34;100237.03;185359;1233;43573;-63
2024/01/25 06:56:10;;;;;;;18.10;4.30;;;;;;;7.43;94.93;100240.89;185226;1233;45780;-63
2024/01/25 07:00:15;;;;;;;14.90;4.20;;;;;;;7.43;93.99;100238.24;185176;1234;45919;-63
2024/01/25 07:04:18;;;;;;;15.90;5.40;;;;;;;7.52;92.40;100269.05;185161;1233;60011;-63
2024/01/25 07:08:23;;;;;;;7.50;3.40;;;;;;;7.54;92.81;100271.88;185313;1234;43545;-64
2024/01/25 07:17:34;;;;;;;;;;;;;;;7.56;90.89;100281.83;185345;1233;43506;-63
2024/01/25 07:21:50;;;;;;;11.90;4.00;;;;;;;7.63;90.95;100297.08;184952;1235;45680;-63
2024/01/25 07:25:52;;;;;;;10.60;2.70;;;;;;;7.59;90.19;100301.05;185275;1234;58811;-63
2024/01/25 07:29:54;;;;;;;18.10;4.60;;;;;;;7.60;91.02;100302.76;185158;1234;44062;-63
2024/01/25 07:33:58;;;;;;;18.90;4.80;;;;;;;7.65;90.64;100303.44;185203;1234;44577;-64
2024/01/25 07:38:01;;;;;;;16.20;4.70;;;;;;;7.62;90.81;100292.74;185247;1234;43528;-63
2024/01/25 07:42:03;;;;;;;17.60;4.70;;;;;;;7.64;89.98;100315.67;185284;1233;45960;-63
2024/01/25 07:46:04;;;;;;;12.70;4.00;;;;;;;7.68;89.38;100318.22;185374;1237;57555;-63
2024/01/25 07:50:08;;;;;;;7.50;3.10;;;;;;;7.68;89.36;100311.70;185195;1234;44598;-63
2024/01/25 07:54:10;;;;;;;14.40;2.80;;;;;;;7.67;88.89;100332.81;185278;1234;46045;-63
2024/01/25 07:58:13;;;;;;;6.80;3.00;;;;;;;7.73;88.23;100334.48;185144;1234;43909;-63
2024/01/25 08:02:16;;;;;;;14.50;3.60;;;;;;;7.71;89.18;100330.93;185140;1234;45947;-63
2024/01/25 08:06:36;;;;;;;6.60;3.20;;;;;;;7.68;89.26;100323.52;185263;1233;57916;-63
2024/01/25 08:10:46;;;;;;;10.00;2.70;;;;;;;7.75;88.23;100337.70;185202;1233;46078;-63
2024/01/25 08:14:49;;;;;;;9.10;3.80;;;;;;;7.76;87.40;100356.03;185007;1234;43533;-63
2024/01/25 08:18:51;;;;;;;17.40;3.80;;;;;;;7.84;87.28;100370.45;185232;1234;43588;-63
2024/01/25 08:22:55;;;;;;;10.00;3.60;;;;;;;7.77;87.99;100368.99;185251;1234;43782;-63
2024/01/25 08:26:56;;;;;;;13.00;3.20;;;;;;;7.79;87.57;100362.49;185153;1235;57078;-63
2024/01/25 08:30:58;;;;;;;7.40;3.30;;;;;;;7.70;88.81;100356.27;185191;1234;44821;-63
2024/01/25 08:35:00;;;;;;;12.10;3.70;;;;;;;7.67;88.60;100364.75;185202;1234;43516;-63
2024/01/25 08:39:04;;;;;;;11.80;3.10;;;;;;;7.71;88.12;100364.10;185250;1234;44011;-63
2024/01/25 08:43:07;;;;;;;16.90;3.30;;;;;;;7.73;88.91;100384.29;185143;1234;45970;-63
2024/01/25 08:47:09;;;;;;;5.00;3.00;;;;;;;7.74;89.38;100367.09;185209;1233;58822;-63
2024/01/25 08:51:23;;;;;;;12.60;4.00;;;;;;;7.71;90.83;100392.55;185246;1234;46111;-63
2024/01/25 08:55:27;;;;;;;16.20;4.20;;;;;;;7.60;92.95;100385.66;185192;1233;44566;-63
2024/01/25 08:59:37;;;;;;;17.60;3.80;;;;;;;7.61;93.20;100409.80;185274;1234;43648;-64
2024/01/25 09:03:39;;;;;;;22.90;5.10;;;;;;;7.54;94.81;100419.40;185220;1234;45054;-64
2024/01/25 09:07:41;;;;;;;10.50;4.70;;;;;;;7.47;96.63;100426.08;184930;1237;58278;-63
2024/01/25 09:12:11;;;;;;;15.80;3.50;;;;;;;7.51;96.15;100422.09;185102;1234;44554;-63
2024/01/25 09:16:16;;;;;;;22.20;4.40;;;;;;;7.51;94.55;100428.82;185317;1234;45829;-63
2024/01/25 09:20:18;;;;;;;14.70;3.10;;;;;;;7.51;94.60;100423.50;185324;1234;45383;-64
2024/01/25 09:24:28;;;;;;;10.30;4.80;;;;;;;7.52;95.96;100436.69;185148;1234;44967;-63
2024/01/25 09:28:29;;;;;;;9.40;4.20;;;;;;;7.56;95.70;100443.45;184889;1234;58340;-63
2024/01/25 09:32:36;;;;;;;9.00;4.30;;;;;;;7.59;95.82;100460.44;185277;1234;44544;-63
2024/01/25 09:36:38;;;;;;;11.40;5.10;;;;;;;7.68;95.19;100464.23;185166;1234;46031;-64
2024/01/25 09:40:51;;;;;;;5.90;2.90;;;;;;;7.67;93.78;100475.22;185207;1234;45902;-63
2024/01/25 09:44:55;;;;;;;10.10;4.00;;;;;;;7.70;93.56;100473.45;185140;1233;45948;-64
2024/01/25 09:48:57;;;;;;;16.90;3.70;;;;;;;7.72;91.61;100465.02;184987;1234;59203;-62
2024/01/25 09:53:03;;;;;;;12.30;3.50;;;;;;;7.75;91.72;100466.23;185180;1234;43517;-63
2024/01/25 09:57:17;;;;;;;16.20;4.50;;;;;;;7.77;91.94;100469.63;184004;1235;1675995;-63
2024/01/25 10:01:19;;;;;;;10.60;4.80;;;;;;;7.75;93.34;100471.92;185296;1236;43578;-63
2024/01/25 10:05:24;;;;;;;14.00;3.80;;;;;;;7.70;93.00;100475.55;185262;1235;45708;-63
2024/01/25 10:09:27;;;;;;;13.60;3.30;;;;;;;7.69;93.48;100485.52;185222;1234;58782;-63
2024/01/25 10:13:31;;;;;;;12.60;5.00;;;;;;;7.76;94.04;100456.98;185255;1234;43589;-63
2024/01/25 10:17:35;;;;;;;8.60;3.10;;;;;;;7.74;96.42;100466.45;185222;1234;46045;-63
2024/01/25 10:22:08;;;;;;;12.90;5.10;;;;;;;7.71;97.48;100487.19;185309;1234;43615;-63
2024/01/25 10:26:14;;;;;;;20.20;4.70;;;;;;;7.58;99.79;100504.77;185192;1234;44138;-63
2024/01/25 10:30:16;;;;;;;17.00;3.90;;;;;;;7.46;100.00;100512.99;185319;1233;58454;-63
2024/01/25 10:34:18;;;;;;;11.50;2.30;;;;;;;7.35;100.00;100518.95;185061;1234;45885;-63
2024/01/25 10:38:25;;;;;;;13.30;4.40;;;;;;;7.36;100.00;100515.00;185175;1234;45966;-63
2024/01/25 10:42:29;;;;;;;11.70;4.10;;;;;;;7.42;100.00;100507.41;185008;1235;43559;-63
2024/01/25 10:46:32;;;;;;;10.20;3.30;;;;;;;7.46;100.00;100515.60;185195;1234;43524;-63
2024/01/25 10:50:35;;;;;;;13.80;3.80;;;;;;;7.44;100.00;100514.50;185069;1234;57959;-63
2024/01/25 10:54:38;;;;;;;19.90;4.80;;;;;;;7.41;100.00;100538.84;185049;1234;44608;-63
2024/01/25 10:58:41;;;;;;;11.10;4.80;;;;;;;7.42;100.00;100527.35;185081;1234;44663;-63
2024/01/25 11:03:02;;;;;;;14.30;3.50;;;;;;;7.55;99.90;100530.54;185276;1234;43769;-63
2024/01/25 11:07:11;;;;;;;19.00;3.70;;;;;;;7.60;99.89;100524.61;185249;1234;43576;-63
2024/01/25 11:11:15;;;;;;;18.70;3.80;;;;;;;7.60;97.78;100530.96;185171;1234;58424;-63
2024/01/25 11:15:31;;;;;;;11.60;3.30;;;;;;;7.73;95.41;100538.95;185210;1234;45992;-63
2024/01/25 11:19:33;;;;;;;11.90;3.70;;;;;;;7.82;96.18;100539.42;185254;1234;45886;-64
2024/01/25 11:23:36;;;;;;;10.50;3.40;;;;;;;7.87;95.27;100533.45;185064;1234;43561;-64
2024/01/25 11:27:38;;;;;;;11.90;4.20;;;;;;;7.83;93.86;100534.38;185117;1233;43849;-63
2024/01/25 11:31:40;;;;;;;20.10;7.40;;;;;;;7.91;93.05;100553.10;185095;1234;58207;-64
2024/01/25 11:35:55;;;;;;;10.50;3.20;;;;;;;7.98;93.58;100554.04;185157;1234;45924;-64
2024/01/25 11:39:57;;;;;;;5.80;3.40;;;;;;;7.79;94.66;100557.59;185228;1234;45967;-63
2024/01/25 11:44:04;;;;;;;14.80;4.90;;;;;;;7.81;97.44;100556.96;185147;1234;44804;-63
2024/01/25 11:48:07;;;;;;;18.00;8.00;;;;;;;7.78;94.61;100550.09;185239;1234;43753;-63
2024/01/25 11:52:09;;;;;;;20.80;5.80;;;;;;;7.81;93.63;100546.90;185177;1233;60115;-63
2024/01/25 11:56:17;;;;;;;9.20;3.90;;;;;;;7.98;92.81;100547.68;185194;1234;43478;-63
2024/01/25 12:00:19;;;;;;;13.90;3.20;;;;;;;8.14;89.87;100554.73;185216;1235;43490;-63
2024/01/25 12:04:22;;;;;;;19.90;3.90;;;;;;;8.24;88.30;100568.58;185213;1237;44224;-63
2024/01/25 12:08:26;;;;;;;8.90;3.70;;;;;;;8.38;89.43;100573.48;185252;1237;45517;-63
2024/01/25 12:12:28;;;;;;;10.30;3.30;;;;;;;8.29;89.10;100562.45;185159;1237;59141;-63
2024/01/25 12:16:31;;;;;;;15.70;3.20;;;;;;;8.16;91.06;100569.46;184938;1236;46113;-63
2024/01/25 12:20:37;;;;;;;;;;;;;;;8.15;91.35;100607.73;185071;1234;45992;-63
2024/01/25 12:24:40;;;;;;;14.20;3.60;;;;;;;8.21;93.06;100601.63;185137;1234;45752;-63
2024/01/25 12:28:56;;;;;;;13.90;5.20;;;;;;;8.20;91.95;100606.67;185127;1235;45973;-63
2024/01/25 12:33:04;;;;;;;11.60;3.10;;;;;;;8.24;90.74;100609.23;185128;1235;57279;-63
2024/01/25 12:37:08;;;;;;;11.60;3.60;;;;;;;8.34;89.77;100603.11;185247;1233;43880;-63
2024/01/25 12:41:12;;;;;;;14.80;3.20;;;;;;;8.29;90.56;100601.28;185153;1234;43730;-63
2024/01/25 12:45:15;;;;;;;16.40;5.30;;;;;;;8.12;93.85;100600.66;185199;1235;44657;-63
2024/01/25 12:49:17;;;;;;;10.50;3.70;;;;;;;7.95;94.32;100616.21;185112;1235;43737;-63
2024/01/25 12:53:51;;;;;;;10.80;3.50;;;;;;;7.59;98.61;100622.40;185091;1234;57739;-63
2024/01/25 12:57:53;;;;;;;15.20;3.10;;;;;;;7.20;100.00;100617.13;185219;1234;44652;-63
2024/01/25 13:02:49;;;;;;;10.30;5.40;;;;;;;7.16;100.00;100632.37;185195;1234;43810;-63
2024/01/25 13:06:58;;;;;;;12.30;3.40;;;;;;;7.22;100.00;100635.46;185226;1234;45097;-63
2024/01/25 13:11:01;;;;;;;11.50;3.20;;;;;;;7.30;100.00;100627.44;184992;1234;43442;-62
2024/01/25 13:15:07;;;;;;;10.20;4.60;;;;;;;7.33;100.00;100625.48;185196;1233;57747;-63
2024/01/25 13:19:12;;;;;;;11.60;4.40;;;;;;;7.37;100.00;100633.33;185358;1237;44580;-63
2024/01/25 13:23:14;;;;;;;27.30;9.50;;;;;;;7.31;100.00;100617.84;185176;1234;44265;-63
2024/01/25 13:27:20;;;;;;;19.10;5.60;;;;;;;7.18;100.00;100621.10;185083;1234;46030;-63
2024/01/25 13:31:22;;;;;;;18.90;4.80;;;;;;;7.15;100.00;100621.44;185135;1237;43959;-63
2024/01/25 13:35:26;;;;;;;13.10;4.00;;;;;;;7.10;100.00;100618.80;184995;1235;58807;-63
2024/01/25 13:39:32;;;;;;;10.30;3.50;;;;;;;7.22;99.87;100613.29;185058;1235;44849;-62
2024/01/25 13:43:34;;;;;;;8.30;2.80;;;;;;;7.27;98.69;100619.64;185243;1237;46043;-63
2024/01/25 13:48:03;;;;;;;11.10;3.30;;;;;;;7.20;99.76;100632.77;185216;1234;45952;-63
2024/01/25 13:52:05;;;;;;;7.80;4.00;;;;;;;7.19;99.81;100639.23;185319;1235;44083;-63
2024/01/25 13:56:08;;;;;;;13.80;4.20;;;;;;;7.23;99.80;100638.45;185301;1234;58857;-62
2024/01/25 14:00:10;;;;;;;29.00;7.40;;;;;;;7.33;98.75;100641.54;185323;1234;43757;-58
2024/01/25 14:04:13;;;;;;;9.60;3.60;;;;;;;7.40;97.80;100650.29;185364;1236;45965;-57
2024/01/25 14:08:17;;;;;;;10.80;4.80;;;;;;;7.45;96.85;100654.36;185368;1234;44878;-57
2024/01/25 14:12:20;;;;;;;23.00;5.80;;;;;;;7.52;95.26;100653.41;185075;1235;46111;-57
2024/01/25 14:16:22;;;;;;;12.70;5.00;;;;;;;7.50;95.78;100661.65;185371;1235;57957;-61
2024/01/25 14:20:26;;;;;;;13.50;4.10;;;;;;;7.38;95.07;100661.48;185487;1233;43832;-58
2024/01/25 14:24:28;;;;;;;15.20;5.20;;;;;;;7.38;94.28;100661.33;185443;1237;46024;-58
2024/01/25 14:28:40;;;;;;;17.40;6.50;;;;;;;7.46;94.89;100675.66;185336;1235;46049;-57
2024/01/25 14:32:43;;;;;;;19.90;6.80;;;;;;;7.55;93.37;100685.00;187193;1234;43217;-57
2024/01/25 14:37:14;;;;;;;16.50;5.90;;;;;;;7.58;93.68;100680.01;186725;1237;58903;-57
2024/01/25 14:41:16;;;;;;;8.80;4.80;;;;;;;7.66;94.82;100685.54;186678;1237;43682;-58
2024/01/25 14:45:21;;;;;;;11.20;4.80;;;;;;;7.64;94.59;100680.02;186675;1239;42927;-59
2024/01/25 14:49:23;;;;;;;13.70;7.30;;;;;;;7.66;92.84;100675.64;185844;1240;43333;-59
2024/01/25 14:53:25;;;;;;;15.50;5.10;;;;;;;7.66;94.21;100679.52;185732;1244;42971;-59
2024/01/25 14:57:44;;;;;;;15.70;6.60;;;;;;;7.62;93.98;100678.89;185656;1247;57995;-59
2024/01/25 15:01:49;;;;;;;13.00;4.10;;;;;;;7.61;93.92;100689.17;185507;1247;43769;-59
2024/01/25 15:05:56;;;;;;;10.40;5.90;;;;;;;7.60;93.62;100688.02;185539;1248;43211;-59
2024/01/25 15:13:41;;;;;;;10.10;4.20;;;;;;;7.67;91.96;100700.11;172701;1294;567742;-82
2024/01/25 15:17:44;;;;;;;12.30;5.50;;;;;;;7.61;92.92;100703.86;175827;1267;58258;-81
2024/01/25 15:21:47;;;;;;;26.10;5.70;;;;;;;7.51;93.54;100702.86;178087;1269;46240;-82
2024/01/25 15:25:50;;;;;;;11.80;5.80;;;;;;;7.43;94.76;100706.20;177959;1263;162714;-80
2024/01/25 15:29:54;;;;;;;16.30;6.10;;;;;;;7.38;95.59;100709.50;176464;1263;46168;-82
2024/01/25 15:33:57;;;;;;;17.90;4.30;;;;;;;7.35;95.99;100717.63;177361;1264;46127;-81
2024/01/25 15:38:05;;;;;;;16.50;5.20;;;;;;;7.34;96.45;100729.54;177616;1267;58441;-81
2024/01/25 15:42:08;;;;;;;8.70;4.70;;;;;;;7.32;96.81;100730.15;177414;1263;46100;-82
2024/01/25 15:46:12;;;;;;;11.10;3.30;;;;;;;7.28;96.95;100734.11;176104;1264;46086;-80
2024/01/25 15:50:20;;;;;;;10.20;4.30;;;;;;;7.25;96.72;100746.64;176775;1263;46021;-81
2024/01/25 15:54:23;;;;;;;15.60;6.40;;;;;;;7.26;96.95;100759.64;175835;1263;46185;-80
2024/01/25 15:58:27;;;;;;;15.20;4.10;;;;;;;7.25;96.38;100777.84;176232;1263;59575;-81
2024/01/25 16:02:30;;;;;;;15.20;4.80;;;;;;;7.25;96.95;100784.20;176397;1264;46558;-81
2024/01/25 16:06:33;;;;;;;20.70;7.10;;;;;;;7.27;96.71;100790.27;177386;1264;46099;-82
2024/01/25 16:10:36;;;;;;;22.30;5.10;;;;;;;7.25;97.14;100785.61;175859;1268;46156;-82
2024/01/25 16:14:40;;;;;;;7.50;3.50;;;;;;;7.25;97.26;100788.09;177440;1253;46078;-82
2024/01/25 16:18:43;;;;;;;11.50;3.50;;;;;;;7.21;96.82;100793.84;178553;1256;59657;-82
2024/01/25 16:22:47;;;;;;;10.20;3.90;;;;;;;7.20;96.88;100794.03;177985;1254;45974;-81
2024/01/25 16:26:50;;;;;;;17.30;6.00;;;;;;;7.20;96.80;100796.52;177445;1257;46111;-81
2024/01/25 16:30:53;;;;;;;12.20;5.90;;;;;;;7.19;96.39;100797.99;177519;1256;45964;-81
2024/01/25 16:34:57;;;;;;;11.60;5.10;;;;;;;7.23;96.12;100800.41;178935;1253;46063;-81
2024/01/25 16:39:00;;;;;;;20.40;6.40;;;;;;;7.18;97.01;100796.59;177103;1253;58071;-79
2024/01/25 16:43:03;;;;;;;19.80;4.60;;;;;;;7.17;97.03;100796.82;178124;1253;46073;-81
2024/01/25 16:47:08;;;;;;;16.90;7.10;;;;;;;7.02;98.22;100791.19;178047;1254;46329;-80
2024/01/25 16:51:11;;;;;;;12.50;4.00;;;;;;;6.98;98.54;100794.44;177269;1257;46217;-81
2024/01/25 16:55:14;;;;;;;17.30;4.50;;;;;;;6.90;99.40;100796.50;177538;1258;46008;-80
2024/01/25 16:59:17;;;;;;;10.00;5.10;;;;;;;6.88;99.32;100802.95;177075;1256;59591;-81
2024/01/25 17:03:21;;;;;;;19.50;5.90;;;;;;;6.82;99.85;100809.11;177501;1254;46163;-81
2024/01/25 17:07:24;;;;;;;14.30;4.90;;;;;;;6.79;100.00;100811.42;177318;1257;46076;-81
2024/01/25 17:11:28;;;;;;;14.40;5.70;;;;;;;6.75;100.00;100820.48;177476;1254;44813;-81
2024/01/25 17:15:32;;;;;;;17.10;5.60;;;;;;;6.87;99.88;100822.60;178985;1254;46099;-82
2024/01/25 17:19:35;;;;;;;17.30;6.70;;;;;;;6.88;100.00;100826.58;177992;1255;59342;-82
2024/01/25 17:23:39;;;;;;;6.00;4.40;;;;;;;6.94;99.59;100827.44;177857;1255;46079;-80
2024/01/25 17:27:42;;;;;;;9.70;5.00;;;;;;;6.96;99.53;100835.25;177297;1254;46069;-81
2024/01/25 17:31:45;;;;;;;17.90;6.10;;;;;;;6.95;99.31;100833.23;177032;1254;46133;-81
2024/01/25 17:35:49;;;;;;;10.80;5.20;;;;;;;6.97;99.22;100834.14;177353;1255;45981;-81
2024/01/25 17:39:53;;;;;;;7.30;4.00;;;;;;;6.92;99.26;100838.66;177374;1254;58694;-81
2024/01/25 17:43:57;;;;;;;16.20;5.50;;;;;;;6.84;99.84;100840.38;178089;1254;46013;-81
2024/01/25 17:48:00;;;;;;;11.10;4.40;;;;;;;6.81;99.93;100851.84;177412;1254;45983;-81
2024/01/25 17:52:03;;;;;;;20.30;8.40;;;;;;;6.84;99.94;100854.48;177373;1256;46265;-81
2024/01/25 17:56:06;;;;;;;10.10;5.00;;;;;;;6.81;99.72;100854.44;177670;1254;46259;-82
2024/01/25 18:00:10;;;;;;;7.80;3.60;;;;;;;6.80;100.00;100863.88;178372;1254;59718;-81
2024/01/25 18:04:13;;;;;;;14.00;4.80;;;;;;;6.76;100.00;100865.52;178161;1257;46088;-83
2024/01/25 18:08:16;;;;;;;11.40;5.30;;;;;;;6.74;100.00;100867.88;178796;1254;46012;-84
2024/01/25 18:12:19;;;;;;;19.40;5.70;;;;;;;6.82;100.00;100876.64;178684;1254;44589;-83
2024/01/25 18:16:23;;;;;;;13.60;5.30;;;;;;;6.81;99.73;100885.51;179067;1254;46003;-83
2024/01/25 18:20:26;;;;;;;13.40;4.20;;;;;;;6.81;99.73;100889.35;178547;1254;58208;-81
2024/01/25 18:24:29;;;;;;;17.00;7.30;;;;;;;6.82;99.85;100896.73;179019;1254;45939;-83
2024/01/25 18:28:32;;;;;;;18.60;6.50;;;;;;;6.85;99.62;100898.84;179621;1253;46082;-83
2024/01/25 18:32:35;;;;;;;13.00;5.20;;;;;;;6.90;99.17;100896.98;178861;1254;45980;-83
2024/01/25 18:36:39;;;;;;;18.70;5.50;;;;;;;6.82;99.83;100896.34;178923;1254;46028;-84
2024/01/25 18:40:42;;;;;;;14.10;5.20;;;;;;;6.77;100.00;100895.09;179127;1254;57961;-82
2024/01/25 18:44:45;;;;;;;7.40;4.70;;;;;;;6.79;100.00;100902.73;179453;1254;46185;-82
2024/01/25 18:48:48;;;;;;;20.90;5.70;;;;;;;6.71;100.00;100902.45;179116;1254;44025;-82
2024/01/25 18:52:52;;;;;;;11.20;5.00;;;;;;;6.75;100.00;100903.79;178508;1254;46047;-80
2024/01/25 18:56:55;;;;;;;13.70;7.20;;;;;;;6.78;100.00;100910.86;178420;1254;44576;-82